Time;durP1;ratioP1;P1;durP2;ratioP2;P2;SDS_P1;SDS_P2;PMS_P1;PMS_P2;Temp;Humidity;BMP_temperature;BMP_pressure;BME280_temperature;BME280_humidity;BME280_pressure;Samples;Min_cycle;Max_cycle;Signal;HPM_P1;HPM_P2
2022/08/02 00:01:53;;;;;;;3.85;3.20;;;;;;;;;;5094424;28;20315;-88
2022/08/02 00:04:21;;;;;;;5.03;3.30;;;;;;;;;;5094706;28;20256;-86
2022/08/02 00:06:48;;;;;;;4.05;3.10;;;;;;;;;;5095039;28;20204;-87
2022/08/02 00:09:15;;;;;;;3.50;3.20;;;;;;;;;;5094527;28;20233;-87
2022/08/02 00:11:42;;;;;;;5.50;3.08;;;;;;;;;;5094235;28;20200;-86
2022/08/02 00:14:10;;;;;;;4.85;3.28;;;;;;;;;;5093270;28;20232;-87
2022/08/02 00:16:37;;;;;;;3.33;3.03;;;;;;;;;;5094097;28;20197;-88
2022/08/02 00:19:04;;;;;;;3.78;3.22;;;;;;;;;;5093786;28;20230;-87
2022/08/02 00:21:32;;;;;;;3.03;2.83;;;;;;;;;;5093487;28;20618;-86
2022/08/02 00:24:00;;;;;;;2.92;2.72;;;;;;;;;;5094258;28;20239;-87
2022/08/02 00:26:28;;;;;;;3.20;3.00;;;;;;;;;;5095747;28;20205;-87
2022/08/02 00:28:55;;;;;;;6.22;2.88;;;;;;;;;;5095859;28;20286;-88
2022/08/02 00:31:22;;;;;;;3.20;3.00;;;;;;;;;;5094238;28;20215;-88
2022/08/02 00:33:49;;;;;;;5.75;2.75;;;;;;;;;;5093760;28;20684;-87
2022/08/02 00:36:16;;;;;;;3.42;3.15;;;;;;;;;;5093850;28;20203;-87
2022/08/02 00:38:46;;;;;;;4.38;2.92;;;;;;;;;;5093115;28;20239;-86
2022/08/02 00:41:15;;;;;;;3.60;3.30;;;;;;;;;;5093457;28;20250;-86
2022/08/02 00:43:42;;;;;;;2.80;2.42;;;;;;;;;;5093113;28;20260;-87
2022/08/02 00:46:09;;;;;;;4.65;3.33;;;;;;;;;;5093401;28;20192;-87
2022/08/02 00:48:36;;;;;;;2.92;2.67;;;;;;;;;;5093251;28;20244;-87
2022/08/02 00:51:04;;;;;;;4.43;3.00;;;;;;;;;;5093603;28;20201;-87
2022/08/02 00:53:31;;;;;;;2.92;2.58;;;;;;;;;;5092913;28;20243;-87
2022/08/02 00:55:59;;;;;;;3.17;2.85;;;;;;;;;;5093562;28;20205;-87
2022/08/02 00:58:27;;;;;;;6.25;3.40;;;;;;;;;;5093352;28;20243;-87
2022/08/02 01:00:56;;;;;;;3.15;2.90;;;;;;;;;;5093101;28;20201;-87
2022/08/02 01:03:23;;;;;;;3.15;2.95;;;;;;;;;;5092618;28;20232;-87
2022/08/02 01:05:50;;;;;;;3.55;2.90;;;;;;;;;;5091402;28;20303;-86
2022/08/02 01:08:17;;;;;;;2.80;2.60;;;;;;;;;;5086703;28;20248;-86
2022/08/02 01:10:45;;;;;;;3.63;3.13;;;;;;;;;;5087503;28;20283;-86
2022/08/02 01:13:13;;;;;;;3.30;3.00;;;;;;;;;;5092455;28;20720;-85
2022/08/02 01:15:43;;;;;;;3.70;3.40;;;;;;;;;;5093047;28;20228;-87
2022/08/02 01:18:15;;;;;;;2.97;2.75;;;;;;;;;;5092789;28;20228;-86
2022/08/02 01:21:01;;;;;;;3.17;2.88;;;;;;;;;;5093317;28;20196;-85
2022/08/02 01:23:38;;;;;;;4.50;3.17;;;;;;;;;;5092031;28;20224;-85
2022/08/02 01:26:23;;;;;;;3.20;2.90;;;;;;;;;;5092523;28;20648;-86
2022/08/02 01:28:54;;;;;;;2.85;2.65;;;;;;;;;;5092136;28;20228;-87
2022/08/02 01:31:22;;;;;;;4.30;3.25;;;;;;;;;;5092493;28;20560;-87
2022/08/02 01:33:52;;;;;;;5.32;3.00;;;;;;;;;;5095660;28;20239;-87
2022/08/02 01:36:20;;;;;;;3.08;2.88;;;;;;;;;;5098083;28;20590;-86
2022/08/02 01:38:49;;;;;;;3.20;3.00;;;;;;;;;;5095669;28;20228;-87
2022/08/02 01:41:19;;;;;;;3.33;2.97;;;;;;;;;;5093390;28;20664;-86
2022/08/02 01:43:48;;;;;;;5.00;2.90;;;;;;;;;;5092010;28;20236;-86
2022/08/02 01:46:18;;;;;;;6.00;3.08;;;;;;;;;;5092906;28;20212;-86
2022/08/02 01:48:45;;;;;;;2.92;2.72;;;;;;;;;;5092007;28;20264;-85
2022/08/02 01:51:17;;;;;;;3.42;3.10;;;;;;;;;;5092459;28;20200;-87
2022/08/02 01:53:46;;;;;;;3.03;2.83;;;;;;;;;;5091726;28;20240;-87
2022/08/02 01:56:15;;;;;;;5.35;3.10;;;;;;;;;;5092097;28;20737;-86
2022/08/02 01:58:42;;;;;;;5.22;3.15;;;;;;;;;;5092049;28;20232;-87
2022/08/02 02:01:10;;;;;;;4.25;3.40;;;;;;;;;;5092050;28;20208;-85
2022/08/02 02:03:40;;;;;;;7.63;3.60;;;;;;;;;;5091389;28;20233;-86
2022/08/02 02:06:08;;;;;;;3.33;3.03;;;;;;;;;;5092253;28;20197;-85
2022/08/02 02:08:37;;;;;;;4.37;3.10;;;;;;;;;;5091698;28;20233;-86
2022/08/02 02:11:04;;;;;;;3.93;3.30;;;;;;;;;;5072904;28;20206;-86
2022/08/02 02:13:32;;;;;;;5.90;3.25;;;;;;;;;;5091601;28;20252;-86
2022/08/02 02:16:02;;;;;;;3.77;3.47;;;;;;;;;;5092131;28;20196;-86
2022/08/02 02:18:30;;;;;;;3.90;3.60;;;;;;;;;;5091933;28;20615;-86
2022/08/02 02:20:58;;;;;;;3.83;3.53;;;;;;;;;;5097874;28;20204;-86
2022/08/02 02:23:28;;;;;;;4.37;3.47;;;;;;;;;;5097825;28;20228;-87
2022/08/02 02:25:56;;;;;;;5.18;3.58;;;;;;;;;;5102622;28;20196;-86
2022/08/02 02:28:27;;;;;;;3.42;3.13;;;;;;;;;;5103840;28;20231;-85
2022/08/02 02:30:59;;;;;;;3.60;3.30;;;;;;;;;;5096812;28;20201;-85
2022/08/02 02:33:26;;;;;;;3.92;3.47;;;;;;;;;;5103152;28;20239;-86
2022/08/02 02:35:53;;;;;;;4.15;3.40;;;;;;;;;;5107901;28;20215;-86
2022/08/02 02:38:22;;;;;;;3.70;3.40;;;;;;;;;;5106581;28;20228;-86
2022/08/02 02:40:50;;;;;;;4.30;3.90;;;;;;;;;;5101229;28;20200;-85
2022/08/02 02:43:17;;;;;;;4.20;3.70;;;;;;;;;;5100942;28;20235;-86
2022/08/02 02:45:46;;;;;;;3.80;3.40;;;;;;;;;;5101554;28;20227;-85
2022/08/02 02:48:14;;;;;;;4.03;3.33;;;;;;;;;;5101561;28;20224;-85
2022/08/02 02:50:42;;;;;;;6.13;3.43;;;;;;;;;;5102014;28;20200;-85
2022/08/02 02:53:09;;;;;;;4.17;3.47;;;;;;;;;;5100494;28;20216;-85
2022/08/02 02:55:38;;;;;;;4.50;4.10;;;;;;;;;;5101056;28;20231;-85
2022/08/02 02:58:05;;;;;;;3.87;3.40;;;;;;;;;;5091642;28;20756;-86
2022/08/02 03:03:18;;;;;;;4.37;3.53;;;;;;;;;;5102983;28;20231;-84
2022/08/02 03:05:45;;;;;;;3.70;3.33;;;;;;;;;;5121021;28;20315;-86
2022/08/02 03:08:12;;;;;;;5.83;3.77;;;;;;;;;;5101823;28;20224;-86
2022/08/02 03:10:43;;;;;;;7.40;3.37;;;;;;;;;;5098229;28;20239;-85
2022/08/02 03:13:11;;;;;;;4.83;3.47;;;;;;;;;;5097988;28;20235;-86
2022/08/02 03:15:39;;;;;;;3.33;3.03;;;;;;;;;;5098109;28;20688;-86
2022/08/02 03:18:07;;;;;;;3.73;3.03;;;;;;;;;;5097574;28;20228;-86
2022/08/02 03:20:34;;;;;;;5.07;3.20;;;;;;;;;;5098098;28;20285;-86
2022/08/02 03:23:01;;;;;;;3.53;3.23;;;;;;;;;;5097242;28;20237;-85
2022/08/02 03:25:28;;;;;;;5.67;3.50;;;;;;;;;;5098040;28;20225;-85
2022/08/02 03:27:57;;;;;;;3.70;3.40;;;;;;;;;;5095096;28;20232;-85
2022/08/02 03:30:26;;;;;;;8.50;3.57;;;;;;;;;;5106802;28;20193;-86
2022/08/02 03:32:53;;;;;;;4.10;3.60;;;;;;;;;;5105130;28;20228;-86
2022/08/02 03:35:21;;;;;;;6.17;3.27;;;;;;;;;;5106780;28;20224;-86
2022/08/02 03:37:49;;;;;;;5.20;4.17;;;;;;;;;;5106026;28;20233;-86
2022/08/02 03:40:16;;;;;;;4.20;3.80;;;;;;;;;;5107158;28;20201;-85
2022/08/02 03:42:43;;;;;;;3.93;3.50;;;;;;;;;;5106624;28;20692;-86
2022/08/02 03:45:13;;;;;;;4.87;3.70;;;;;;;;;;5106476;28;20224;-86
2022/08/02 03:47:40;;;;;;;4.33;3.03;;;;;;;;;;5105854;28;20832;-86
2022/08/02 03:50:08;;;;;;;4.20;3.80;;;;;;;;;;5095394;28;20196;-86
2022/08/02 03:52:36;;;;;;;3.83;3.50;;;;;;;;;;5094420;28;20232;-86
2022/08/02 03:55:04;;;;;;;5.17;3.77;;;;;;;;;;5095319;28;20229;-86
2022/08/02 03:57:31;;;;;;;4.57;4.07;;;;;;;;;;5094414;28;20228;-86
2022/08/02 03:59:58;;;;;;;4.20;3.80;;;;;;;;;;5094700;28;20197;-86
2022/08/02 04:02:29;;;;;;;5.17;4.10;;;;;;;;;;5093439;28;20258;-85
2022/08/02 04:04:56;;;;;;;4.10;3.80;;;;;;;;;;5094321;28;20648;-86
2022/08/02 04:07:23;;;;;;;4.20;3.60;;;;;;;;;;5094580;28;20233;-84
2022/08/02 04:09:50;;;;;;;4.13;3.83;;;;;;;;;;5095063;28;20211;-84
2022/08/02 04:12:17;;;;;;;4.40;4.00;;;;;;;;;;5094724;28;20236;-84
2022/08/02 04:14:44;;;;;;;6.23;4.13;;;;;;;;;;5095502;28;20224;-83
2022/08/02 04:17:13;;;;;;;4.90;4.20;;;;;;;;;;5094899;28;20235;-84
2022/08/02 04:19:44;;;;;;;5.70;4.10;;;;;;;;;;5094609;28;20645;-84
2022/08/02 04:22:14;;;;;;;4.20;3.80;;;;;;;;;;5094667;28;20244;-85
2022/08/02 04:24:46;;;;;;;4.13;3.50;;;;;;;;;;5095049;28;20224;-84
2022/08/02 04:27:13;;;;;;;8.23;3.70;;;;;;;;;;5094625;28;20311;-84
2022/08/02 04:29:41;;;;;;;6.70;3.70;;;;;;;;;;5094935;28;20205;-84
2022/08/02 04:32:08;;;;;;;7.27;3.83;;;;;;;;;;5094526;28;20726;-84
2022/08/02 04:34:36;;;;;;;4.03;3.57;;;;;;;;;;5095341;28;20247;-84
2022/08/02 04:37:04;;;;;;;7.43;3.80;;;;;;;;;;5094751;28;20208;-84
2022/08/02 04:39:31;;;;;;;3.97;3.67;;;;;;;;;;5095695;28;20212;-84
2022/08/02 04:41:58;;;;;;;3.90;3.60;;;;;;;;;;5095446;28;20205;-83
2022/08/02 04:44:25;;;;;;;4.50;3.70;;;;;;;;;;5095704;28;20228;-83
2022/08/02 04:46:53;;;;;;;4.07;3.67;;;;;;;;;;5094759;28;20208;-84
2022/08/02 04:49:20;;;;;;;4.00;3.70;;;;;;;;;;5095026;28;20205;-83
2022/08/02 04:51:47;;;;;;;7.47;3.67;;;;;;;;;;5093774;28;20209;-84
2022/08/02 04:54:15;;;;;;;4.00;3.70;;;;;;;;;;5094274;28;20217;-84
2022/08/02 04:56:42;;;;;;;4.17;3.87;;;;;;;;;;5094174;28;20204;-84
2022/08/02 04:59:11;;;;;;;4.07;3.77;;;;;;;;;;5094273;28;20243;-84
2022/08/02 05:01:41;;;;;;;4.40;4.00;;;;;;;;;;5095236;28;20359;-82
2022/08/02 05:04:08;;;;;;;5.27;4.23;;;;;;;;;;5104767;28;20235;-83
2022/08/02 05:06:35;;;;;;;4.20;3.80;;;;;;;;;;5103061;28;20303;-80
2022/08/02 05:09:02;;;;;;;4.30;3.90;;;;;;;;;;5095382;28;20235;-80
2022/08/02 05:11:31;;;;;;;6.27;4.37;;;;;;;;;;5093986;28;20250;-80
2022/08/02 05:13:58;;;;;;;8.77;4.23;;;;;;;;;;5093107;28;20224;-80
2022/08/02 05:16:25;;;;;;;6.87;4.10;;;;;;;;;;5093196;28;20208;-80
2022/08/02 05:18:52;;;;;;;6.90;4.87;;;;;;;;;;5095678;28;20236;-80
2022/08/02 05:21:19;;;;;;;5.67;4.47;;;;;;;;;;5101677;28;20215;-82
2022/08/02 05:23:46;;;;;;;7.00;4.97;;;;;;;;;;5094402;28;20232;-83
2022/08/02 05:26:13;;;;;;;8.60;5.33;;;;;;;;;;5093484;28;20204;-84
2022/08/02 05:28:42;;;;;;;7.43;4.97;;;;;;;;;;5092436;28;20237;-83
2022/08/02 05:31:09;;;;;;;6.17;5.57;;;;;;;;;;5093434;28;20205;-85
2022/08/02 05:33:36;;;;;;;8.37;4.60;;;;;;;;;;5092787;28;20235;-83
2022/08/02 05:36:03;;;;;;;10.10;4.70;;;;;;;;;;5093718;28;20586;-85
2022/08/02 05:38:31;;;;;;;5.87;5.27;;;;;;;;;;5094488;28;20259;-83
2022/08/02 05:40:58;;;;;;;6.23;4.93;;;;;;;;;;5097006;28;20209;-83
2022/08/02 05:43:25;;;;;;;4.83;4.43;;;;;;;;;;5096493;28;20232;-82
2022/08/02 05:45:54;;;;;;;5.17;4.67;;;;;;;;;;5094942;28;20228;-82
2022/08/02 05:48:21;;;;;;;7.20;4.90;;;;;;;;;;5093950;28;20237;-82
2022/08/02 05:50:50;;;;;;;7.00;4.77;;;;;;;;;;5094771;28;20205;-83
2022/08/02 05:53:24;;;;;;;6.97;4.90;;;;;;;;;;5102226;28;20262;-84
2022/08/02 05:55:56;;;;;;;5.43;4.93;;;;;;;;;;5093579;28;20204;-83
2022/08/02 05:58:28;;;;;;;5.30;4.90;;;;;;;;;;5094183;28;20243;-83
2022/08/02 06:00:57;;;;;;;6.10;4.70;;;;;;;;;;5114414;28;20191;-83
2022/08/02 06:03:25;;;;;;;5.20;4.80;;;;;;;;;;5112797;28;20230;-83
2022/08/02 06:05:54;;;;;;;5.60;5.10;;;;;;;;;;5113247;28;20191;-84
2022/08/02 06:08:25;;;;;;;7.57;5.67;;;;;;;;;;5112617;28;20243;-83
2022/08/02 06:10:52;;;;;;;7.10;6.40;;;;;;;;;;5113800;28;20609;-83
2022/08/02 06:13:20;;;;;;;6.30;5.70;;;;;;;;;;5112490;28;20231;-83
2022/08/02 06:15:51;;;;;;;13.52;5.60;;;;;;;;;;5113216;28;20235;-83
2022/08/02 06:18:21;;;;;;;5.15;4.65;;;;;;;;;;5112481;28;20733;-83
2022/08/02 06:20:50;;;;;;;5.25;4.28;;;;;;;;;;5113198;28;20735;-86
2022/08/02 06:23:18;;;;;;;5.68;4.57;;;;;;;;;;5112566;28;20235;-86
2022/08/02 06:25:47;;;;;;;4.60;4.22;;;;;;;;;;5096991;28;20229;-86
2022/08/02 06:28:14;;;;;;;6.20;3.85;;;;;;;;;;5091477;28;20235;-87
2022/08/02 06:30:42;;;;;;;4.93;4.53;;;;;;;;;;5092414;28;20209;-86
2022/08/02 06:33:09;;;;;;;4.85;4.32;;;;;;;;;;5091979;28;20220;-86
2022/08/02 06:35:42;;;;;;;5.55;4.07;;;;;;;;;;5093355;28;20269;-86
2022/08/02 06:38:10;;;;;;;5.38;4.63;;;;;;;;;;5091562;28;20239;-86
2022/08/02 06:40:44;;;;;;;5.60;4.45;;;;;;;;;;5092403;28;20231;-86
2022/08/02 06:43:12;;;;;;;6.88;4.75;;;;;;;;;;5092061;28;20243;-85
2022/08/02 06:45:40;;;;;;;6.05;4.60;;;;;;;;;;5092243;28;20232;-86
2022/08/02 06:48:07;;;;;;;5.63;5.10;;;;;;;;;;5091916;28;20240;-86
2022/08/02 06:50:34;;;;;;;4.90;4.50;;;;;;;;;;5091664;28;20220;-86
2022/08/02 06:53:02;;;;;;;3.92;3.53;;;;;;;;;;5091483;28;20236;-86
2022/08/02 06:55:31;;;;;;;5.05;4.50;;;;;;;;;;5091750;28;20786;-87
2022/08/02 06:57:59;;;;;;;4.85;4.15;;;;;;;;;;5091688;28;20237;-86
2022/08/02 07:00:26;;;;;;;5.70;4.25;;;;;;;;;;5091850;28;20200;-85
2022/08/02 07:02:53;;;;;;;4.65;4.13;;;;;;;;;;5092079;28;20228;-85
2022/08/02 07:05:20;;;;;;;4.20;3.80;;;;;;;;;;5092331;28;20240;-85
2022/08/02 07:07:47;;;;;;;3.90;3.60;;;;;;;;;;5095485;28;20232;-85
2022/08/02 07:10:16;;;;;;;3.70;3.45;;;;;;;;;;5095835;28;20205;-84
2022/08/02 07:12:43;;;;;;;5.00;3.60;;;;;;;;;;5095255;28;20229;-85
2022/08/02 07:17:57;;;;;;;4.68;3.70;;;;;;;;;;5095079;28;20282;-85
2022/08/02 07:20:24;;;;;;;4.45;3.35;;;;;;;;;;5096973;28;20592;-86
2022/08/02 07:22:51;;;;;;;4.72;3.60;;;;;;;;;;5097717;28;20236;-86
2022/08/02 07:25:19;;;;;;;3.17;2.90;;;;;;;;;;5096302;28;20239;-86
2022/08/02 07:27:46;;;;;;;4.03;3.63;;;;;;;;;;5095339;28;20235;-86
2022/08/02 07:30:14;;;;;;;5.97;3.50;;;;;;;;;;5097132;28;20212;-89
2022/08/02 07:32:41;;;;;;;4.03;3.63;;;;;;;;;;5097555;28;20232;-88
2022/08/02 07:35:09;;;;;;;8.75;3.35;;;;;;;;;;5098181;28;20216;-87
2022/08/02 07:37:37;;;;;;;4.07;3.38;;;;;;;;;;5097545;28;20239;-86
2022/08/02 07:40:04;;;;;;;5.13;3.53;;;;;;;;;;5096588;28;20661;-86
2022/08/02 07:42:33;;;;;;;3.40;3.10;;;;;;;;;;5095046;28;20232;-87
2022/08/02 07:45:00;;;;;;;5.53;3.70;;;;;;;;;;5095973;28;20285;-87
2022/08/02 07:47:27;;;;;;;4.10;3.13;;;;;;;;;;5095545;28;20237;-87
2022/08/02 07:49:54;;;;;;;4.07;3.25;;;;;;;;;;5096021;28;20232;-87
2022/08/02 07:52:22;;;;;;;3.83;3.13;;;;;;;;;;5094368;28;20232;-87
2022/08/02 07:54:49;;;;;;;4.47;2.42;;;;;;;;;;5095073;28;20228;-87
2022/08/02 07:57:16;;;;;;;2.80;2.45;;;;;;;;;;5094367;28;20232;-87
2022/08/02 07:59:45;;;;;;;2.05;1.80;;;;;;;;;;5096019;28;20201;-88
2022/08/02 08:02:15;;;;;;;6.93;2.30;;;;;;;;;;5094714;28;20247;-87
2022/08/02 08:04:42;;;;;;;2.75;2.30;;;;;;;;;;5094863;28;20232;-86
2022/08/02 08:07:10;;;;;;;4.60;2.30;;;;;;;;;;5094112;28;20236;-87
2022/08/02 08:09:39;;;;;;;2.30;2.10;;;;;;;;;;5094580;28;20209;-86
2022/08/02 08:12:06;;;;;;;3.15;2.50;;;;;;;;;;5093529;28;20234;-87
2022/08/02 08:14:33;;;;;;;2.85;2.30;;;;;;;;;;5095427;28;20244;-87
2022/08/02 08:17:02;;;;;;;2.38;2.03;;;;;;;;;;5096447;28;20215;-87
2022/08/02 08:19:29;;;;;;;2.17;1.98;;;;;;;;;;5094163;28;20212;-87
2022/08/02 08:21:58;;;;;;;2.00;1.90;;;;;;;;;;5095285;28;20653;-86
2022/08/02 08:24:25;;;;;;;4.50;2.20;;;;;;;;;;5093946;28;20217;-87
2022/08/02 08:26:53;;;;;;;1.90;1.80;;;;;;;;;;5094127;28;20208;-88
2022/08/02 08:29:20;;;;;;;1.90;1.73;;;;;;;;;;5093926;28;20181;-88
2022/08/02 08:31:47;;;;;;;2.90;1.80;;;;;;;;;;5093948;28;20209;-88
2022/08/02 08:34:16;;;;;;;23.88;2.60;;;;;;;;;;5095066;28;20639;-88
2022/08/02 08:36:43;;;;;;;16.30;2.20;;;;;;;;;;5094758;28;20215;-89
2022/08/02 08:39:10;;;;;;;19.17;3.72;;;;;;;;;;5109361;28;20221;-88
2022/08/02 08:41:38;;;;;;;20.65;2.38;;;;;;;;;;5097482;28;20207;-88
2022/08/02 08:44:07;;;;;;;1.23;1.23;;;;;;;;;;5095333;28;20236;-90
2022/08/02 08:46:37;;;;;;;6.25;1.25;;;;;;;;;;5095456;28;20204;-90
2022/08/02 08:49:09;;;;;;;5.25;1.38;;;;;;;;;;5094127;28;20235;-89
2022/08/02 08:51:39;;;;;;;1.45;1.40;;;;;;;;;;5094594;28;20192;-87
2022/08/02 08:54:15;;;;;;;1.70;1.40;;;;;;;;;;5094517;28;20224;-87
2022/08/02 08:56:42;;;;;;;5.60;1.73;;;;;;;;;;5094790;28;20212;-89
2022/08/02 08:59:10;;;;;;;1.10;1.10;;;;;;;;;;5094440;28;20240;-84
2022/08/02 09:01:37;;;;;;;4.47;1.60;;;;;;;;;;5094481;28;20208;-84
2022/08/02 09:04:04;;;;;;;0.93;0.93;;;;;;;;;;5093452;28;20282;-83
2022/08/02 09:06:31;;;;;;;2.67;1.00;;;;;;;;;;5093477;28;20341;-84
2022/08/02 09:08:59;;;;;;;1.00;1.00;;;;;;;;;;5098943;28;20216;-85
2022/08/02 09:11:27;;;;;;;13.07;2.42;;;;;;;;;;5096493;28;20201;-85
2022/08/02 09:13:54;;;;;;;1.30;1.20;;;;;;;;;;5094229;28;20248;-86
2022/08/02 09:16:28;;;;;;;1.20;1.10;;;;;;;;;;5096115;28;20205;-86
2022/08/02 09:18:55;;;;;;;14.48;1.83;;;;;;;;;;5093958;28;20256;-84
2022/08/02 09:21:23;;;;;;;8.82;1.70;;;;;;;;;;5093784;28;20676;-85
2022/08/02 09:23:51;;;;;;;42.33;2.25;;;;;;;;;;5093240;28;20248;-87
2022/08/02 09:26:20;;;;;;;1.10;1.10;;;;;;;;;;5092697;28;20208;-88
2022/08/02 09:28:49;;;;;;;1.10;1.00;;;;;;;;;;5092039;28;20251;-85
2022/08/02 09:31:16;;;;;;;12.38;1.27;;;;;;;;;;5091957;28;20924;-85
2022/08/02 09:33:45;;;;;;;0.90;0.90;;;;;;;;;;5092573;28;20606;-86
2022/08/02 09:36:12;;;;;;;1.05;1.05;;;;;;;;;;5084265;28;20208;-86
2022/08/02 09:38:40;;;;;;;0.80;0.80;;;;;;;;;;5075723;28;20615;-86
2022/08/02 09:41:20;;;;;;;1.55;1.00;;;;;;;;;;5082515;28;20223;-86
2022/08/02 09:43:48;;;;;;;1.20;1.05;;;;;;;;;;5094959;28;20594;-86
2022/08/02 09:46:16;;;;;;;1.63;1.25;;;;;;;;;;5104011;28;20216;-86
2022/08/02 09:48:47;;;;;;;1.95;1.20;;;;;;;;;;5105276;28;20236;-87
2022/08/02 09:51:14;;;;;;;1.45;1.10;;;;;;;;;;5103394;28;20197;-86
2022/08/02 09:53:41;;;;;;;1.30;1.20;;;;;;;;;;5083252;28;20237;-87
2022/08/02 09:56:08;;;;;;;1.20;1.10;;;;;;;;;;5078085;28;20209;-86
2022/08/02 09:58:38;;;;;;;1.27;1.17;;;;;;;;;;5074950;28;20233;-88
2022/08/02 10:01:07;;;;;;;2.38;0.90;;;;;;;;;;5074214;28;20209;-86
2022/08/02 10:03:34;;;;;;;1.23;1.05;;;;;;;;;;5073509;28;20286;-86
2022/08/02 10:06:03;;;;;;;1.40;1.13;;;;;;;;;;5106102;28;20211;-87
2022/08/02 10:08:30;;;;;;;1.40;1.30;;;;;;;;;;5091191;22;20229;-83
2022/08/02 10:11:00;;;;;;;1.75;0.95;;;;;;;;;;5060619;28;20194;-83
2022/08/02 10:13:28;;;;;;;1.30;1.00;;;;;;;;;;5052708;28;20248;-83
2022/08/02 10:15:56;;;;;;;1.38;1.27;;;;;;;;;;5053163;28;20202;-82
2022/08/02 10:18:25;;;;;;;1.27;1.27;;;;;;;;;;5051988;28;20261;-82
2022/08/02 10:20:54;;;;;;;1.20;1.10;;;;;;;;;;5053125;28;20224;-82
2022/08/02 10:23:21;;;;;;;1.30;1.20;;;;;;;;;;5052548;28;20237;-83
2022/08/02 10:25:48;;;;;;;1.75;1.10;;;;;;;;;;5052858;28;20378;-83
2022/08/02 10:28:17;;;;;;;1.25;1.02;;;;;;;;;;5051898;28;20233;-83
2022/08/02 10:30:47;;;;;;;0.90;0.90;;;;;;;;;;5052258;28;20673;-83
2022/08/02 10:33:17;;;;;;;2.75;1.10;;;;;;;;;;5051629;28;20234;-83
2022/08/02 10:35:47;;;;;;;1.75;0.85;;;;;;;;;;5052514;28;20198;-83
2022/08/02 10:38:16;;;;;;;87.80;3.92;;;;;;;;;;5052432;28;20324;-82
2022/08/02 10:40:44;;;;;;;72.47;5.18;;;;;;;;;;5053386;28;20202;-83
2022/08/02 10:43:11;;;;;;;0.70;0.70;;;;;;;;;;5057206;28;20230;-83
2022/08/02 10:45:39;;;;;;;0.90;0.90;;;;;;;;;;5063279;28;20237;-82
2022/08/02 10:48:08;;;;;;;1.00;1.00;;;;;;;;;;5058556;28;20237;-83
2022/08/02 10:50:55;;;;;;;2.92;1.00;;;;;;;;;;5059175;28;20213;-83
2022/08/02 10:53:23;;;;;;;1.67;1.10;;;;;;;;;;5057362;28;20233;-83
2022/08/02 10:55:50;;;;;;;1.20;1.08;;;;;;;;;;5057479;28;20205;-83
2022/08/02 10:58:18;;;;;;;0.82;0.82;;;;;;;;;;5055002;28;20244;-82
2022/08/02 11:00:45;;;;;;;0.77;0.77;;;;;;;;;;5075438;28;20208;-84
2022/08/02 11:03:27;;;;;;;1.55;0.98;;;;;;;;;;5075396;28;20692;-83
2022/08/02 11:06:02;;;;;;;0.98;0.98;;;;;;;;;;5075638;28;20220;-84
2022/08/02 11:08:30;;;;;;;1.38;1.02;;;;;;;;;;5075809;28;20236;-83
2022/08/02 11:10:59;;;;;;;1.02;1.02;;;;;;;;;;5076795;28;20200;-83
2022/08/02 11:13:28;;;;;;;2.15;1.10;;;;;;;;;;5076556;28;20239;-83
2022/08/02 11:16:03;;;;;;;1.00;0.93;;;;;;;;;;5076967;28;20201;-84
2022/08/02 11:18:49;;;;;;;1.00;1.00;;;;;;;;;;5089398;28;20238;-84
2022/08/02 11:21:24;;;;;;;0.82;0.82;;;;;;;;;;5100035;28;20192;-84
2022/08/02 11:23:51;;;;;;;0.80;0.80;;;;;;;;;;5089544;28;20235;-83
2022/08/02 11:26:36;;;;;;;0.60;0.60;;;;;;;;;;5061138;28;20545;-83
2022/08/02 11:29:05;;;;;;;1.65;0.90;;;;;;;;;;5060932;28;20233;-84
2022/08/02 11:31:38;;;;;;;1.38;0.77;;;;;;;;;;5060859;28;20570;-83
2022/08/02 11:34:06;;;;;;;0.77;0.77;;;;;;;;;;5060487;28;20248;-84
2022/08/02 11:36:43;;;;;;;0.80;0.70;;;;;;;;;;5061274;28;20237;-83
2022/08/02 11:39:11;;;;;;;0.45;0.45;;;;;;;;;;5059485;28;20237;-83
2022/08/02 11:41:38;;;;;;;1.08;1.08;;;;;;;;;;5061866;28;20280;-84
2022/08/02 11:44:05;;;;;;;0.90;0.90;;;;;;;;;;5050878;28;20237;-85
2022/08/02 11:46:32;;;;;;;1.35;0.80;;;;;;;;;;5057957;28;20225;-85
2022/08/02 11:49:11;;;;;;;1.00;0.90;;;;;;;;;;5060112;28;20236;-84
2022/08/02 11:51:39;;;;;;;0.85;0.85;;;;;;;;;;5060622;28;20198;-85
2022/08/02 11:54:06;;;;;;;1.10;1.00;;;;;;;;;;5056659;28;20237;-86
2022/08/02 11:56:33;;;;;;;1.85;0.88;;;;;;;;;;5054148;28;20216;-86
2022/08/02 11:59:01;;;;;;;0.82;0.82;;;;;;;;;;5054073;28;20238;-85
2022/08/02 12:01:28;;;;;;;1.33;0.90;;;;;;;;;;5054452;28;20703;-85
2022/08/02 12:03:59;;;;;;;0.95;0.70;;;;;;;;;;5053728;28;20233;-84
2022/08/02 12:06:27;;;;;;;0.90;0.90;;;;;;;;;;5054097;28;20255;-83
2022/08/02 12:09:03;;;;;;;0.95;0.90;;;;;;;;;;5053945;28;20233;-83
2022/08/02 12:14:42;;;;;;;0.80;0.80;;;;;;;;;;5041921;28;20803;-83
2022/08/02 12:19:53;;;;;;;0.70;0.70;;;;;;;;;;5035024;28;20209;-83
2022/08/02 12:22:24;;;;;;;1.90;0.95;;;;;;;;;;5033731;28;20280;-83
2022/08/02 12:24:53;;;;;;;0.98;0.70;;;;;;;;;;5034319;28;20183;-83
2022/08/02 12:27:30;;;;;;;1.38;0.93;;;;;;;;;;5033669;28;20233;-84
2022/08/02 12:30:02;;;;;;;1.08;0.82;;;;;;;;;;5034231;28;20197;-85
2022/08/02 12:32:29;;;;;;;0.73;0.73;;;;;;;;;;5033915;28;20292;-84
2022/08/02 12:35:06;;;;;;;1.33;1.23;;;;;;;;;;5033740;28;20237;-83
2022/08/02 12:37:34;;;;;;;1.95;1.00;;;;;;;;;;5040763;28;20385;-84
2022/08/02 12:40:16;;;;;;;1.42;1.33;;;;;;;;;;5054869;28;20209;-84
2022/08/02 12:42:47;;;;;;;1.08;1.00;;;;;;;;;;5052674;28;20575;-84
2022/08/02 12:45:15;;;;;;;0.90;0.90;;;;;;;;;;5054626;28;20197;-82
2022/08/02 12:47:45;;;;;;;0.90;0.75;;;;;;;;;;5053966;28;20237;-84
2022/08/02 12:50:13;;;;;;;0.80;0.80;;;;;;;;;;5054648;28;20206;-83
2022/08/02 12:52:40;;;;;;;1.40;0.80;;;;;;;;;;5054553;28;20233;-82
2022/08/02 12:55:22;;;;;;;0.63;0.63;;;;;;;;;;5055005;28;20751;-82
2022/08/02 12:57:55;;;;;;;0.85;0.85;;;;;;;;;;5043777;28;20241;-82
2022/08/02 13:00:26;;;;;;;1.08;1.00;;;;;;;;;;5054929;28;20256;-82
2022/08/02 13:02:53;;;;;;;0.85;0.85;;;;;;;;;;5053744;28;20232;-82
2022/08/02 13:05:21;;;;;;;1.20;1.10;;;;;;;;;;5054076;28;20198;-83
2022/08/02 13:07:48;;;;;;;2.35;1.10;;;;;;;;;;5053726;28;20296;-83
2022/08/02 13:10:15;;;;;;;0.82;0.82;;;;;;;;;;5054248;28;20251;-83
2022/08/02 13:12:42;;;;;;;0.70;0.70;;;;;;;;;;5053134;28;20283;-83
2022/08/02 13:15:11;;;;;;;0.90;0.90;;;;;;;;;;5055627;28;20236;-82
2022/08/02 13:17:38;;;;;;;1.00;0.80;;;;;;;;;;5055381;28;20229;-83
2022/08/02 13:20:06;;;;;;;1.08;1.05;;;;;;;;;;5055176;28;20311;-83
2022/08/02 13:22:33;;;;;;;1.00;1.00;;;;;;;;;;5054529;28;20229;-83
2022/08/02 13:25:00;;;;;;;0.98;0.90;;;;;;;;;;5055860;28;20233;-83
2022/08/02 13:27:27;;;;;;;0.88;0.88;;;;;;;;;;5054974;28;20241;-83
2022/08/02 13:29:55;;;;;;;4.00;1.10;;;;;;;;;;5055108;28;20209;-83
2022/08/02 13:32:23;;;;;;;0.82;0.82;;;;;;;;;;5054616;28;20229;-83
2022/08/02 13:34:50;;;;;;;1.30;0.85;;;;;;;;;;5046011;28;20695;-83
2022/08/02 13:37:17;;;;;;;1.15;1.05;;;;;;;;;;5053500;28;20716;-84
2022/08/02 13:39:44;;;;;;;0.90;0.88;;;;;;;;;;5055392;28;20552;-83
2022/08/02 13:42:11;;;;;;;0.93;0.90;;;;;;;;;;5052955;28;20233;-83
2022/08/02 13:44:39;;;;;;;1.00;1.00;;;;;;;;;;5053634;28;20208;-82
2022/08/02 13:47:07;;;;;;;0.80;0.80;;;;;;;;;;5053040;28;20245;-83
2022/08/02 13:49:35;;;;;;;0.82;0.82;;;;;;;;;;5053738;28;20201;-84
2022/08/02 13:52:02;;;;;;;3.47;0.90;;;;;;;;;;5052162;28;20206;-83
2022/08/02 13:54:29;;;;;;;0.85;0.85;;;;;;;;;;5053358;28;20213;-84
2022/08/02 13:56:57;;;;;;;0.90;0.90;;;;;;;;;;5051908;28;20228;-84
2022/08/02 13:59:24;;;;;;;1.02;0.93;;;;;;;;;;5057432;28;20473;-83
2022/08/02 14:01:51;;;;;;;1.15;1.02;;;;;;;;;;5053925;28;20212;-83
2022/08/02 14:04:18;;;;;;;0.95;0.93;;;;;;;;;;5055207;28;20205;-82
2022/08/02 14:06:46;;;;;;;1.02;0.93;;;;;;;;;;5054557;28;20233;-83
2022/08/02 14:09:13;;;;;;;3.83;1.25;;;;;;;;;;5053931;28;20221;-82
2022/08/02 14:11:40;;;;;;;0.75;0.75;;;;;;;;;;5052674;28;20205;-83
2022/08/02 14:14:07;;;;;;;0.90;0.90;;;;;;;;;;5053366;28;20283;-83
2022/08/02 14:16:34;;;;;;;1.00;0.73;;;;;;;;;;5052466;28;20224;-83
2022/08/02 14:19:01;;;;;;;0.73;0.73;;;;;;;;;;5052103;28;20244;-83
2022/08/02 14:21:29;;;;;;;3.63;1.10;;;;;;;;;;5053138;28;20206;-84
2022/08/02 14:23:57;;;;;;;1.10;1.10;;;;;;;;;;5051900;28;20233;-83
2022/08/02 14:26:24;;;;;;;1.20;1.10;;;;;;;;;;5052048;28;20300;-83
2022/08/02 14:28:51;;;;;;;0.90;0.90;;;;;;;;;;5051913;28;20237;-84
2022/08/02 14:31:18;;;;;;;1.75;0.90;;;;;;;;;;5052487;28;20234;-83
2022/08/02 14:33:45;;;;;;;1.00;1.00;;;;;;;;;;5051578;28;20592;-84
2022/08/02 14:36:12;;;;;;;0.80;0.80;;;;;;;;;;5052462;28;20232;-83
2022/08/02 14:38:39;;;;;;;1.40;0.90;;;;;;;;;;5052906;28;20237;-83
2022/08/02 14:41:08;;;;;;;2.15;1.00;;;;;;;;;;5053112;28;20186;-84
2022/08/02 14:46:20;;;;;;;0.77;0.75;;;;;;;;;;5053065;28;20646;-83
2022/08/02 14:48:47;;;;;;;4.50;1.00;;;;;;;;;;5052917;28;20561;-82
2022/08/02 14:51:14;;;;;;;0.93;0.82;;;;;;;;;;5054164;28;20217;-82
2022/08/02 14:53:41;;;;;;;0.77;0.77;;;;;;;;;;5053197;28;20238;-82
2022/08/02 14:56:10;;;;;;;0.70;0.70;;;;;;;;;;5053162;28;20230;-82
2022/08/02 14:58:38;;;;;;;1.10;0.90;;;;;;;;;;5053313;28;20245;-82
2022/08/02 15:01:05;;;;;;;0.80;0.80;;;;;;;;;;5053050;28;20217;-81
2022/08/02 15:03:32;;;;;;;0.90;0.90;;;;;;;;;;5052387;28;20238;-82
2022/08/02 15:05:59;;;;;;;2.45;0.85;;;;;;;;;;5053051;28;20209;-82